sensor_id;sensor_type;location;lat;lon;timestamp;pressure;altitude;pressure_sealevel;temperature;humidity
46756;BME280;32506;52.826;-1.192;2024-03-07T00:00:45;101770.69;;;6.28;62.02
46756;BME280;32506;52.826;-1.192;2024-03-07T00:03:11;101777.13;;;6.26;62.21
46756;BME280;32506;52.826;-1.192;2024-03-07T00:05:36;101773.00;;;6.23;62.66
46756;BME280;32506;52.826;-1.192;2024-03-07T00:08:02;101776.78;;;6.20;62.47
46756;BME280;32506;52.826;-1.192;2024-03-07T00:10:28;101780.56;;;6.18;63.11
46756;BME280;32506;52.826;-1.192;2024-03-07T00:12:53;101779.88;;;6.16;62.83
46756;BME280;32506;52.826;-1.192;2024-03-07T00:15:19;101778.38;;;6.13;62.42
46756;BME280;32506;52.826;-1.192;2024-03-07T00:17:47;101783.00;;;6.11;62.67
46756;BME280;32506;52.826;-1.192;2024-03-07T00:20:12;101781.50;;;6.09;62.73
46756;BME280;32506;52.826;-1.192;2024-03-07T00:22:46;101782.63;;;6.06;62.93
46756;BME280;32506;52.826;-1.192;2024-03-07T00:25:12;101779.28;;;6.04;63.07
46756;BME280;32506;52.826;-1.192;2024-03-07T00:27:39;101775.97;;;6.02;62.97
46756;BME280;32506;52.826;-1.192;2024-03-07T00:30:06;101784.09;;;6.00;63.31
46756;BME280;32506;52.826;-1.192;2024-03-07T00:32:33;101780.03;;;5.96;62.53
46756;BME280;32506;52.826;-1.192;2024-03-07T00:35:02;101783.69;;;5.95;62.78
46756;BME280;32506;52.826;-1.192;2024-03-07T00:37:33;101788.28;;;5.93;62.97
46756;BME280;32506;52.826;-1.192;2024-03-07T00:43:43;101783.72;;;5.85;63.25
46756;BME280;32506;52.826;-1.192;2024-03-07T00:46:08;101778.91;;;5.81;62.85
46756;BME280;32506;52.826;-1.192;2024-03-07T00:48:36;101777.38;;;5.78;63.42
46756;BME280;32506;52.826;-1.192;2024-03-07T00:51:04;101783.81;;;5.76;63.15
46756;BME280;32506;52.826;-1.192;2024-03-07T00:53:32;101784.13;;;5.72;62.95
46756;BME280;32506;52.826;-1.192;2024-03-07T00:55:58;101782.63;;;5.70;63.09
46756;BME280;32506;52.826;-1.192;2024-03-07T00:58:23;101789.06;;;5.67;63.31
46756;BME280;32506;52.826;-1.192;2024-03-07T01:00:56;101785.72;;;5.65;63.74
46756;BME280;32506;52.826;-1.192;2024-03-07T01:03:21;101788.66;;;5.62;63.01
46756;BME280;32506;52.826;-1.192;2024-03-07T01:05:49;101785.34;;;5.60;62.86
46756;BME280;32506;52.826;-1.192;2024-03-07T01:08:15;101789.94;;;5.58;62.78
46756;BME280;32506;52.826;-1.192;2024-03-07T01:10:40;101790.25;;;5.55;63.26
46756;BME280;32506;52.826;-1.192;2024-03-07T01:13:09;101798.53;;;5.52;63.32
46756;BME280;32506;52.826;-1.192;2024-03-07T01:15:44;101795.16;;;5.50;62.77
46756;BME280;32506;52.826;-1.192;2024-03-07T01:18:10;101795.47;;;5.47;62.88
46756;BME280;32506;52.826;-1.192;2024-03-07T01:20:36;101790.34;;;5.45;63.41
46756;BME280;32506;52.826;-1.192;2024-03-07T01:23:01;101793.09;;;5.44;63.20
46756;BME280;32506;52.826;-1.192;2024-03-07T01:25:27;101793.41;;;5.41;63.41
46756;BME280;32506;52.826;-1.192;2024-03-07T01:27:52;101787.56;;;5.37;63.55
46756;BME280;32506;52.826;-1.192;2024-03-07T01:30:18;101787.56;;;5.37;63.82
46756;BME280;32506;52.826;-1.192;2024-03-07T01:32:43;101787.88;;;5.34;64.04
46756;BME280;32506;52.826;-1.192;2024-03-07T01:35:11;101788.84;;;5.33;64.45
46756;BME280;32506;52.826;-1.192;2024-03-07T01:37:38;101792.63;;;5.30;64.74
46756;BME280;32506;52.826;-1.192;2024-03-07T01:40:04;101789.16;;;5.30;64.80
46756;BME280;32506;52.826;-1.192;2024-03-07T01:42:30;101788.47;;;5.28;65.44
46756;BME280;32506;52.826;-1.192;2024-03-07T01:44:56;101787.63;;;5.27;65.20
46756;BME280;32506;52.826;-1.192;2024-03-07T01:47:22;101782.47;;;5.26;65.25
46756;BME280;32506;52.826;-1.192;2024-03-07T01:49:48;101787.78;;;5.26;65.59
46756;BME280;32506;52.826;-1.192;2024-03-07T01:52:14;101783.47;;;5.25;65.86
46756;BME280;32506;52.826;-1.192;2024-03-07T01:54:39;101780.81;;;5.25;65.96
46756;BME280;32506;52.826;-1.192;2024-03-07T01:57:05;101786.41;;;5.21;65.41
46756;BME280;32506;52.826;-1.192;2024-03-07T01:59:31;101788.25;;;5.21;65.14
46756;BME280;32506;52.826;-1.192;2024-03-07T02:01:58;101787.38;;;5.20;65.26
46756;BME280;32506;52.826;-1.192;2024-03-07T02:04:24;101787.53;;;5.19;65.23
46756;BME280;32506;52.826;-1.192;2024-03-07T02:06:50;101779.75;;;5.17;64.95
46756;BME280;32506;52.826;-1.192;2024-03-07T02:09:16;101783.53;;;5.15;64.76
46756;BME280;32506;52.826;-1.192;2024-03-07T02:11:42;101783.66;;;5.13;64.95
46756;BME280;32506;52.826;-1.192;2024-03-07T02:14:08;101777.66;;;5.11;64.45
46756;BME280;32506;52.826;-1.192;2024-03-07T02:16:33;101781.44;;;5.09;64.11
46756;BME280;32506;52.826;-1.192;2024-03-07T02:18:59;101779.09;;;5.06;64.33
46756;BME280;32506;52.826;-1.192;2024-03-07T02:21:25;101779.25;;;5.04;64.46
46756;BME280;32506;52.826;-1.192;2024-03-07T02:23:51;101781.19;;;5.02;64.76
46756;BME280;32506;52.826;-1.192;2024-03-07T02:26:16;101788.63;;;4.98;64.57
46756;BME280;32506;52.826;-1.192;2024-03-07T02:28:43;101784.28;;;4.97;64.88
46756;BME280;32506;52.826;-1.192;2024-03-07T02:31:09;101784.44;;;4.96;65.23
46756;BME280;32506;52.826;-1.192;2024-03-07T02:33:34;101778.44;;;4.94;65.04
46756;BME280;32506;52.826;-1.192;2024-03-07T02:36:01;101780.28;;;4.93;65.15
46756;BME280;32506;52.826;-1.192;2024-03-07T02:38:26;101776.91;;;4.91;65.08
46756;BME280;32506;52.826;-1.192;2024-03-07T02:40:51;101783.06;;;4.92;65.25
46756;BME280;32506;52.826;-1.192;2024-03-07T02:43:17;101784.03;;;4.91;65.66
46756;BME280;32506;52.826;-1.192;2024-03-07T02:45:43;101781.53;;;4.89;65.48
46756;BME280;32506;52.826;-1.192;2024-03-07T02:48:11;101778.03;;;4.88;65.49
46756;BME280;32506;52.826;-1.192;2024-03-07T02:50:37;101786.00;;;4.88;65.18
46756;BME280;32506;52.826;-1.192;2024-03-07T02:53:04;101785.03;;;4.90;65.27
46756;BME280;32506;52.826;-1.192;2024-03-07T02:55:30;101778.91;;;4.89;66.18
46756;BME280;32506;52.826;-1.192;2024-03-07T02:57:55;101782.38;;;4.90;65.83
46756;BME280;32506;52.826;-1.192;2024-03-07T03:00:24;101779.72;;;4.90;66.27
46756;BME280;32506;52.826;-1.192;2024-03-07T03:02:55;101785.72;;;4.92;66.12
46756;BME280;32506;52.826;-1.192;2024-03-07T03:05:22;101784.03;;;4.91;67.02
46756;BME280;32506;52.826;-1.192;2024-03-07T03:07:50;101782.22;;;4.91;66.63
46756;BME280;32506;52.826;-1.192;2024-03-07T03:10:25;101788.22;;;4.93;66.89
46756;BME280;32506;52.826;-1.192;2024-03-07T03:12:56;101781.09;;;4.94;67.03
46756;BME280;32506;52.826;-1.192;2024-03-07T03:15:26;101781.94;;;4.94;67.67
46756;BME280;32506;52.826;-1.192;2024-03-07T03:17:52;101770.34;;;4.95;67.97
46756;BME280;32506;52.826;-1.192;2024-03-07T03:20:21;101773.00;;;4.95;67.74
46756;BME280;32506;52.826;-1.192;2024-03-07T03:23:00;101771.03;;;4.97;67.75
46756;BME280;32506;52.826;-1.192;2024-03-07T03:25:26;101773.53;;;4.99;67.69
46756;BME280;32506;52.826;-1.192;2024-03-07T03:27:52;101768.25;;;4.99;67.33
46756;BME280;32506;52.826;-1.192;2024-03-07T03:30:18;101771.59;;;5.01;67.70
46756;BME280;32506;52.826;-1.192;2024-03-07T03:32:53;101766.31;;;5.01;68.05
46756;BME280;32506;52.826;-1.192;2024-03-07T03:35:18;101769.63;;;5.03;68.21
46756;BME280;32506;52.826;-1.192;2024-03-07T03:37:45;101771.28;;;5.04;67.72
46756;BME280;32506;52.826;-1.192;2024-03-07T03:40:14;101772.13;;;5.04;68.10
46756;BME280;32506;52.826;-1.192;2024-03-07T03:42:41;101773.78;;;5.06;67.52
46756;BME280;32506;52.826;-1.192;2024-03-07T03:45:07;101770.16;;;5.07;67.91
46756;BME280;32506;52.826;-1.192;2024-03-07T03:47:43;101762.22;;;5.07;67.82
46756;BME280;32506;52.826;-1.192;2024-03-07T03:50:13;101762.06;;;5.08;67.74
46756;BME280;32506;52.826;-1.192;2024-03-07T03:52:39;101760.25;;;5.09;67.35
46756;BME280;32506;52.826;-1.192;2024-03-07T03:55:06;101760.94;;;5.11;67.18
46756;BME280;32506;52.826;-1.192;2024-03-07T03:57:34;101752.13;;;5.10;67.75
46756;BME280;32506;52.826;-1.192;2024-03-07T04:00:00;101762.63;;;5.12;67.62
46756;BME280;32506;52.826;-1.192;2024-03-07T04:02:26;101759.81;;;5.13;67.71
46756;BME280;32506;52.826;-1.192;2024-03-07T04:04:52;101759.66;;;5.15;67.86
46756;BME280;32506;52.826;-1.192;2024-03-07T04:10:39;101776.22;;;5.17;67.85
46756;BME280;32506;52.826;-1.192;2024-03-07T04:13:08;101777.09;;;5.17;67.73
46756;BME280;32506;52.826;-1.192;2024-03-07T04:15:34;101770.81;;;5.18;68.13
46756;BME280;32506;52.826;-1.192;2024-03-07T04:17:59;101768.97;;;5.19;67.54
46756;BME280;32506;52.826;-1.192;2024-03-07T04:20:25;101765.34;;;5.20;68.10
46756;BME280;32506;52.826;-1.192;2024-03-07T04:22:50;101773.97;;;5.22;68.05
46756;BME280;32506;52.826;-1.192;2024-03-07T04:25:16;101775.81;;;5.21;67.87
46756;BME280;32506;52.826;-1.192;2024-03-07T04:27:42;101775.66;;;5.23;67.83
46756;BME280;32506;52.826;-1.192;2024-03-07T04:30:10;101772.03;;;5.24;67.81
46756;BME280;32506;52.826;-1.192;2024-03-07T04:32:39;101775.50;;;5.25;67.97
46756;BME280;32506;52.826;-1.192;2024-03-07T04:35:07;101775.34;;;5.26;67.62
46756;BME280;32506;52.826;-1.192;2024-03-07T04:37:34;101778.84;;;5.27;67.67
46756;BME280;32506;52.826;-1.192;2024-03-07T04:40:06;101778.69;;;5.28;67.71
46756;BME280;32506;52.826;-1.192;2024-03-07T04:42:44;101780.38;;;5.29;67.42
46756;BME280;32506;52.826;-1.192;2024-03-07T04:45:12;101782.03;;;5.30;68.04
46756;BME280;32506;52.826;-1.192;2024-03-07T04:47:42;101780.22;;;5.31;67.89
46756;BME280;32506;52.826;-1.192;2024-03-07T04:50:12;101772.13;;;5.32;68.34
46756;BME280;32506;52.826;-1.192;2024-03-07T04:52:40;101782.56;;;5.34;67.83
46756;BME280;32506;52.826;-1.192;2024-03-07T04:55:06;101783.38;;;5.34;67.68
46756;BME280;32506;52.826;-1.192;2024-03-07T04:57:36;101777.97;;;5.36;67.42
46756;BME280;32506;52.826;-1.192;2024-03-07T05:03:31;101781.28;;;5.38;68.44
46756;BME280;32506;52.826;-1.192;2024-03-07T05:06:13;101792.75;;;5.38;68.56
46756;BME280;32506;52.826;-1.192;2024-03-07T05:08:47;101788.41;;;5.37;68.65
46756;BME280;32506;52.826;-1.192;2024-03-07T05:11:13;101784.78;;;5.38;68.00
46756;BME280;32506;52.826;-1.192;2024-03-07T05:13:38;101790.91;;;5.39;67.63
46756;BME280;32506;52.826;-1.192;2024-03-07T05:16:19;101787.28;;;5.40;67.52
46756;BME280;32506;52.826;-1.192;2024-03-07T05:22:06;101791.59;;;5.41;68.03
46756;BME280;32506;52.826;-1.192;2024-03-07T05:24:35;101791.59;;;5.41;68.16
46756;BME280;32506;52.826;-1.192;2024-03-07T05:27:10;101782.66;;;5.42;68.16
46756;BME280;32506;52.826;-1.192;2024-03-07T05:29:37;101790.47;;;5.44;68.05
46756;BME280;32506;52.826;-1.192;2024-03-07T05:32:28;101791.16;;;5.46;67.98
46756;BME280;32506;52.826;-1.192;2024-03-07T05:34:58;101786.00;;;5.44;68.14
46756;BME280;32506;52.826;-1.192;2024-03-07T05:37:26;101793.81;;;5.46;68.10
46756;BME280;32506;52.826;-1.192;2024-03-07T05:39:55;101799.94;;;5.46;67.91
46756;BME280;32506;52.826;-1.192;2024-03-07T05:42:21;101799.94;;;5.46;67.73
46756;BME280;32506;52.826;-1.192;2024-03-07T05:44:46;101798.13;;;5.47;67.37
46756;BME280;32506;52.826;-1.192;2024-03-07T05:47:12;101796.31;;;5.47;68.11
46756;BME280;32506;52.826;-1.192;2024-03-07T05:49:42;101805.09;;;5.48;68.20
46756;BME280;32506;52.826;-1.192;2024-03-07T05:52:08;101804.25;;;5.47;68.31
46756;BME280;32506;52.826;-1.192;2024-03-07T05:54:35;101805.94;;;5.48;67.75
46756;BME280;32506;52.826;-1.192;2024-03-07T05:57:03;101800.63;;;5.48;67.60
46756;BME280;32506;52.826;-1.192;2024-03-07T05:59:31;101807.59;;;5.49;67.78
46756;BME280;32506;52.826;-1.192;2024-03-07T06:01:57;101804.97;;;5.49;67.46
46756;BME280;32506;52.826;-1.192;2024-03-07T06:04:22;101797.00;;;5.49;67.49
46756;BME280;32506;52.826;-1.192;2024-03-07T06:06:50;101798.66;;;5.50;67.71
46756;BME280;32506;52.826;-1.192;2024-03-07T06:09:16;101801.31;;;5.50;67.42
46756;BME280;32506;52.826;-1.192;2024-03-07T06:11:46;101797.66;;;5.51;67.86
46756;BME280;32506;52.826;-1.192;2024-03-07T06:14:15;101793.34;;;5.50;67.75
46756;BME280;32506;52.826;-1.192;2024-03-07T06:16:41;101792.38;;;5.51;67.37
46756;BME280;32506;52.826;-1.192;2024-03-07T06:19:07;101791.38;;;5.52;68.00
46756;BME280;32506;52.826;-1.192;2024-03-07T06:21:34;101790.56;;;5.52;67.92
46756;BME280;32506;52.826;-1.192;2024-03-07T06:24:01;101798.38;;;5.53;68.03
46756;BME280;32506;52.826;-1.192;2024-03-07T06:26:32;101802.00;;;5.52;67.83
46756;BME280;32506;52.826;-1.192;2024-03-07T06:29:07;101802.00;;;5.52;67.91
46756;BME280;32506;52.826;-1.192;2024-03-07T06:31:39;101804.66;;;5.52;67.42
46756;BME280;32506;52.826;-1.192;2024-03-07T06:34:08;101809.81;;;5.54;67.43
46756;BME280;32506;52.826;-1.192;2024-03-07T06:36:36;101808.97;;;5.53;67.84
46756;BME280;32506;52.826;-1.192;2024-03-07T06:39:04;101808.97;;;5.53;67.50
46756;BME280;32506;52.826;-1.192;2024-03-07T06:41:33;101804.66;;;5.52;67.38
46756;BME280;32506;52.826;-1.192;2024-03-07T06:43:59;101812.44;;;5.54;67.93
46756;BME280;32506;52.826;-1.192;2024-03-07T06:46:25;101808.97;;;5.53;67.44
46756;BME280;32506;52.826;-1.192;2024-03-07T06:48:54;101815.94;;;5.54;68.01
46756;BME280;32506;52.826;-1.192;2024-03-07T06:51:21;101818.56;;;5.54;67.40
46756;BME280;32506;52.826;-1.192;2024-03-07T06:53:48;101814.94;;;5.55;67.69
46756;BME280;32506;52.826;-1.192;2024-03-07T06:56:16;101814.13;;;5.55;67.93
46756;BME280;32506;52.826;-1.192;2024-03-07T06:58:42;101807.97;;;5.54;67.53
46756;BME280;32506;52.826;-1.192;2024-03-07T07:01:12;101815.81;;;5.56;67.71
46756;BME280;32506;52.826;-1.192;2024-03-07T07:03:40;101813.28;;;5.54;67.15
46756;BME280;32506;52.826;-1.192;2024-03-07T07:06:08;101808.81;;;5.55;67.54
46756;BME280;32506;52.826;-1.192;2024-03-07T07:08:34;101807.84;;;5.56;67.43
46756;BME280;32506;52.826;-1.192;2024-03-07T07:10:59;101811.47;;;5.55;67.72
46756;BME280;32506;52.826;-1.192;2024-03-07T07:13:27;101803.53;;;5.55;67.69
46756;BME280;32506;52.826;-1.192;2024-03-07T07:15:53;101809.66;;;5.55;67.24
46756;BME280;32506;52.826;-1.192;2024-03-07T07:18:19;101808.66;;;5.57;67.55
46756;BME280;32506;52.826;-1.192;2024-03-07T07:20:49;101814.78;;;5.57;67.91
46756;BME280;32506;52.826;-1.192;2024-03-07T07:23:17;101799.75;;;5.58;67.29
46756;BME280;32506;52.826;-1.192;2024-03-07T07:25:43;101799.75;;;5.58;67.70
46756;BME280;32506;52.826;-1.192;2024-03-07T07:28:13;101801.41;;;5.59;67.77
46756;BME280;32506;52.826;-1.192;2024-03-07T07:30:40;101804.06;;;5.59;66.98
46756;BME280;32506;52.826;-1.192;2024-03-07T07:33:06;101807.53;;;5.59;67.12
46756;BME280;32506;52.826;-1.192;2024-03-07T07:35:40;101810.19;;;5.59;67.45
46756;BME280;32506;52.826;-1.192;2024-03-07T07:38:08;101808.34;;;5.60;67.86
46756;BME280;32506;52.826;-1.192;2024-03-07T07:40:39;101811.88;;;5.60;67.92
46756;BME280;32506;52.826;-1.192;2024-03-07T07:43:06;101809.88;;;5.62;67.64
46756;BME280;32506;52.826;-1.192;2024-03-07T07:45:32;101810.03;;;5.61;67.95
46756;BME280;32506;52.826;-1.192;2024-03-07T07:48:01;101809.88;;;5.62;67.54
46756;BME280;32506;52.826;-1.192;2024-03-07T07:50:30;101806.41;;;5.62;67.86
46756;BME280;32506;52.826;-1.192;2024-03-07T07:52:58;101807.06;;;5.64;67.72
46756;BME280;32506;52.826;-1.192;2024-03-07T07:55:28;101808.75;;;5.65;67.67
46756;BME280;32506;52.826;-1.192;2024-03-07T07:57:58;101810.44;;;5.66;67.37
46756;BME280;32506;52.826;-1.192;2024-03-07T08:00:30;101806.09;;;5.65;67.78
46756;BME280;32506;52.826;-1.192;2024-03-07T08:03:02;101803.28;;;5.66;67.69
46756;BME280;32506;52.826;-1.192;2024-03-07T08:05:54;101795.34;;;5.66;67.72
46756;BME280;32506;52.826;-1.192;2024-03-07T08:11:09;101793.38;;;5.68;67.23
46756;BME280;32506;52.826;-1.192;2024-03-07T08:13:36;101796.69;;;5.70;67.70
46756;BME280;32506;52.826;-1.192;2024-03-07T08:16:01;101801.88;;;5.72;67.74
46756;BME280;32506;52.826;-1.192;2024-03-07T08:18:28;101795.72;;;5.71;67.59
46756;BME280;32506;52.826;-1.192;2024-03-07T08:27:43;101782.03;;;5.76;67.79
46756;BME280;32506;52.826;-1.192;2024-03-07T08:30:10;101781.00;;;5.77;67.88
46756;BME280;32506;52.826;-1.192;2024-03-07T08:32:43;101782.69;;;5.78;67.51
46756;BME280;32506;52.826;-1.192;2024-03-07T08:35:09;101794.00;;;5.80;67.74
46756;BME280;32506;52.826;-1.192;2024-03-07T08:37:37;101793.69;;;5.83;68.26
46756;BME280;32506;52.826;-1.192;2024-03-07T08:40:04;101785.72;;;5.83;67.55
46756;BME280;32506;52.826;-1.192;2024-03-07T08:42:34;101789.03;;;5.85;68.01
46756;BME280;32506;52.826;-1.192;2024-03-07T08:45:06;101783.59;;;5.87;67.24
46756;BME280;32506;52.826;-1.192;2024-03-07T08:47:39;101787.78;;;5.90;67.66
46756;BME280;32506;52.826;-1.192;2024-03-07T08:50:05;101781.31;;;5.92;67.41
46756;BME280;32506;52.826;-1.192;2024-03-07T08:52:37;101781.31;;;5.92;67.58
46756;BME280;32506;52.826;-1.192;2024-03-07T08:55:06;101780.31;;;5.93;67.18
46756;BME280;32506;52.826;-1.192;2024-03-07T08:57:36;101781.03;;;5.95;67.15
46756;BME280;32506;52.826;-1.192;2024-03-07T09:00:06;101780.88;;;5.97;67.43
46756;BME280;32506;52.826;-1.192;2024-03-07T09:02:47;101781.56;;;5.99;67.30
46756;BME280;32506;52.826;-1.192;2024-03-07T09:05:13;101785.88;;;6.00;67.21
46756;BME280;32506;52.826;-1.192;2024-03-07T09:07:41;101785.88;;;6.00;67.61
46756;BME280;32506;52.826;-1.192;2024-03-07T09:10:07;101782.25;;;6.01;67.41
46756;BME280;32506;52.826;-1.192;2024-03-07T09:12:32;101792.72;;;6.02;67.16
46756;BME280;32506;52.826;-1.192;2024-03-07T09:14:58;101781.94;;;6.04;67.81
46756;BME280;32506;52.826;-1.192;2024-03-07T09:17:24;101786.09;;;6.07;67.54
46756;BME280;32506;52.826;-1.192;2024-03-07T09:19:49;101788.75;;;6.07;67.57
46756;BME280;32506;52.826;-1.192;2024-03-07T09:22:15;101783.31;;;6.08;67.18
46756;BME280;32506;52.826;-1.192;2024-03-07T09:24:43;101784.16;;;6.09;67.45
46756;BME280;32506;52.826;-1.192;2024-03-07T09:27:08;101787.47;;;6.11;67.60
46756;BME280;32506;52.826;-1.192;2024-03-07T09:29:39;101785.66;;;6.11;67.12
46756;BME280;32506;52.826;-1.192;2024-03-07T09:32:05;101787.31;;;6.12;67.25
46756;BME280;32506;52.826;-1.192;2024-03-07T09:34:34;101789.84;;;6.14;67.31
46756;BME280;32506;52.826;-1.192;2024-03-07T09:37:01;101787.03;;;6.15;67.42
46756;BME280;32506;52.826;-1.192;2024-03-07T09:39:27;101788.69;;;6.16;67.24
46756;BME280;32506;52.826;-1.192;2024-03-07T09:41:53;101784.22;;;6.17;67.61
46756;BME280;32506;52.826;-1.192;2024-03-07T09:44:20;101793.69;;;6.19;66.94
46756;BME280;32506;52.826;-1.192;2024-03-07T09:46:54;101786.56;;;6.20;67.51
46756;BME280;32506;52.826;-1.192;2024-03-07T09:49:20;101780.09;;;6.22;67.66
46756;BME280;32506;52.826;-1.192;2024-03-07T09:51:47;101783.44;;;6.25;67.47
46756;BME280;32506;52.826;-1.192;2024-03-07T09:54:13;101774.47;;;6.26;67.70
46756;BME280;32506;52.826;-1.192;2024-03-07T09:56:41;101780.47;;;6.28;67.20
46756;BME280;32506;52.826;-1.192;2024-03-07T09:59:11;101774.19;;;6.29;66.99
46756;BME280;32506;52.826;-1.192;2024-03-07T10:01:39;101774.84;;;6.31;67.54
46756;BME280;32506;52.826;-1.192;2024-03-07T10:04:08;101775.53;;;6.33;67.81
46756;BME280;32506;52.826;-1.192;2024-03-07T10:06:38;101776.03;;;6.36;67.73
46756;BME280;32506;52.826;-1.192;2024-03-07T10:09:07;101770.59;;;6.38;67.59
46756;BME280;32506;52.826;-1.192;2024-03-07T10:11:33;101773.09;;;6.40;67.07
46756;BME280;32506;52.826;-1.192;2024-03-07T10:13:59;101775.44;;;6.43;66.35
46756;BME280;32506;52.826;-1.192;2024-03-07T10:16:25;101768.16;;;6.45;66.35
46756;BME280;32506;52.826;-1.192;2024-03-07T10:18:50;101778.44;;;6.48;67.14
46756;BME280;32506;52.826;-1.192;2024-03-07T10:21:20;101765.84;;;6.50;67.15
46756;BME280;32506;52.826;-1.192;2024-03-07T10:23:46;101774.34;;;6.53;67.16
46756;BME280;32506;52.826;-1.192;2024-03-07T10:26:12;101773.03;;;6.58;66.67
46756;BME280;32506;52.826;-1.192;2024-03-07T10:28:41;101771.06;;;6.60;67.26
46756;BME280;32506;52.826;-1.192;2024-03-07T10:31:06;101771.72;;;6.62;67.16
46756;BME280;32506;52.826;-1.192;2024-03-07T10:33:40;101769.59;;;6.65;66.41
46756;BME280;32506;52.826;-1.192;2024-03-07T10:36:06;101768.28;;;6.69;66.13
46756;BME280;32506;52.826;-1.192;2024-03-07T10:38:37;101769.78;;;6.72;66.68
46756;BME280;32506;52.826;-1.192;2024-03-07T10:41:02;101759.00;;;6.74;67.07
46756;BME280;32506;52.826;-1.192;2024-03-07T10:43:29;101756.88;;;6.77;66.78
46756;BME280;32506;52.826;-1.192;2024-03-07T10:45:59;101755.72;;;6.80;66.60
46756;BME280;32506;52.826;-1.192;2024-03-07T10:48:29;101752.75;;;6.83;67.22
46756;BME280;32506;52.826;-1.192;2024-03-07T10:51:09;101753.25;;;6.86;66.47
46756;BME280;32506;52.826;-1.192;2024-03-07T11:01:48;101753.94;;;6.97;66.44
46756;BME280;32506;52.826;-1.192;2024-03-07T11:04:17;101752.63;;;7.01;66.13
46756;BME280;32506;52.826;-1.192;2024-03-07T11:06:46;101746.84;;;7.05;66.49
46756;BME280;32506;52.826;-1.192;2024-03-07T11:09:11;101739.41;;;7.09;66.57
46756;BME280;32506;52.826;-1.192;2024-03-07T11:11:38;101744.22;;;7.14;67.04
46756;BME280;32506;52.826;-1.192;2024-03-07T11:14:17;101745.38;;;7.19;66.22
46756;BME280;32506;52.826;-1.192;2024-03-07T11:16:44;101742.44;;;7.22;66.55
46756;BME280;32506;52.826;-1.192;2024-03-07T11:19:27;101736.59;;;7.27;66.33
46756;BME280;32506;52.826;-1.192;2024-03-07T11:21:53;101739.78;;;7.31;66.22
46756;BME280;32506;52.826;-1.192;2024-03-07T11:24:26;101738.13;;;7.30;65.71
46756;BME280;32506;52.826;-1.192;2024-03-07T11:26:55;101736.97;;;7.32;65.68
46756;BME280;32506;52.826;-1.192;2024-03-07T11:29:42;101738.28;;;7.36;65.88
46756;BME280;32506;52.826;-1.192;2024-03-07T11:32:14;101732.81;;;7.38;66.00
46756;BME280;32506;52.826;-1.192;2024-03-07T11:34:41;101735.31;;;7.39;66.86
46756;BME280;32506;52.826;-1.192;2024-03-07T11:37:10;101721.00;;;7.41;66.96
46756;BME280;32506;52.826;-1.192;2024-03-07T11:39:50;101722.69;;;7.42;66.53
46756;BME280;32506;52.826;-1.192;2024-03-07T11:42:28;101726.00;;;7.44;66.86
46756;BME280;32506;52.826;-1.192;2024-03-07T11:44:56;101721.53;;;7.44;66.39
46756;BME280;32506;52.826;-1.192;2024-03-07T11:47:23;101714.19;;;7.46;66.86
46756;BME280;32506;52.826;-1.192;2024-03-07T11:49:50;101707.88;;;7.47;66.68
46756;BME280;32506;52.826;-1.192;2024-03-07T11:52:19;101709.38;;;7.50;67.04
46756;BME280;32506;52.826;-1.192;2024-03-07T11:54:46;101699.56;;;7.50;66.39
46756;BME280;32506;52.826;-1.192;2024-03-07T11:57:15;101700.91;;;7.54;66.21
46756;BME280;32506;52.826;-1.192;2024-03-07T11:59:44;101690.94;;;7.56;66.20
46756;BME280;32506;52.826;-1.192;2024-03-07T12:02:14;101695.09;;;7.59;65.77
46756;BME280;32506;52.826;-1.192;2024-03-07T12:04:47;101685.97;;;7.62;66.27
46756;BME280;32506;52.826;-1.192;2024-03-07T12:07:12;101688.09;;;7.66;66.33
46756;BME280;32506;52.826;-1.192;2024-03-07T12:09:40;101680.81;;;7.68;65.82
46756;BME280;32506;52.826;-1.192;2024-03-07T12:12:11;101681.28;;;7.72;66.00
46756;BME280;32506;52.826;-1.192;2024-03-07T12:14:37;101674.63;;;7.76;65.62
46756;BME280;32506;52.826;-1.192;2024-03-07T12:17:04;101666.50;;;7.78;65.54
46756;BME280;32506;52.826;-1.192;2024-03-07T12:19:34;101664.31;;;7.81;65.27
46756;BME280;32506;52.826;-1.192;2024-03-07T12:22:03;101662.31;;;7.83;65.69
46756;BME280;32506;52.826;-1.192;2024-03-07T12:24:40;101663.81;;;7.86;65.85
46756;BME280;32506;52.826;-1.192;2024-03-07T12:29:32;101646.69;;;7.88;65.64
46756;BME280;32506;52.826;-1.192;2024-03-07T12:31:59;101651.66;;;7.92;65.72
46756;BME280;32506;52.826;-1.192;2024-03-07T12:34:25;101649.50;;;7.95;65.64
46756;BME280;32506;52.826;-1.192;2024-03-07T12:36:55;101636.19;;;7.95;65.70
46756;BME280;32506;52.826;-1.192;2024-03-07T12:39:26;101633.19;;;7.98;66.00
46756;BME280;32506;52.826;-1.192;2024-03-07T12:42:14;101628.53;;;8.00;65.77
46756;BME280;32506;52.826;-1.192;2024-03-07T12:44:41;101629.00;;;8.04;65.47
46756;BME280;32506;52.826;-1.192;2024-03-07T12:47:14;101620.69;;;8.07;65.64
46756;BME280;32506;52.826;-1.192;2024-03-07T12:49:43;101614.34;;;8.08;66.08
46756;BME280;32506;52.826;-1.192;2024-03-07T12:52:10;101617.50;;;8.12;66.05
46756;BME280;32506;52.826;-1.192;2024-03-07T12:54:38;101607.69;;;8.12;65.87
46756;BME280;32506;52.826;-1.192;2024-03-07T12:57:10;101601.00;;;8.16;65.65
46756;BME280;32506;52.826;-1.192;2024-03-07T12:59:39;101612.31;;;8.18;65.74
46756;BME280;32506;52.826;-1.192;2024-03-07T13:02:11;101600.69;;;8.19;65.50
46756;BME280;32506;52.826;-1.192;2024-03-07T13:04:38;101601.31;;;8.21;65.37
46756;BME280;32506;52.826;-1.192;2024-03-07T13:07:06;101595.81;;;8.23;65.39
46756;BME280;32506;52.826;-1.192;2024-03-07T13:09:35;101592.16;;;8.24;65.21
46756;BME280;32506;52.826;-1.192;2024-03-07T13:12:01;101594.47;;;8.27;65.82
46756;BME280;32506;52.826;-1.192;2024-03-07T13:14:31;101587.97;;;8.30;65.43
46756;BME280;32506;52.826;-1.192;2024-03-07T13:17:00;101585.97;;;8.32;65.72
46756;BME280;32506;52.826;-1.192;2024-03-07T13:19:27;101582.13;;;8.34;65.86
46756;BME280;32506;52.826;-1.192;2024-03-07T13:21:52;101568.47;;;8.37;65.95
46756;BME280;32506;52.826;-1.192;2024-03-07T13:24:19;101564.00;;;8.38;65.45
46756;BME280;32506;52.826;-1.192;2024-03-07T13:26:45;101555.63;;;8.41;65.71
46756;BME280;32506;52.826;-1.192;2024-03-07T13:29:13;101560.59;;;8.44;65.77